Mercedes, Argentina
Current Conditions -  °F | °C
As of 7:00 PM on Sunday 25 Jan 2015 (Local Time) from SARL Reporting Station
Scattered Clouds Scattered Clouds  
Wind Chill: 32°   Ceiling: Unl
Heat Index: 38°   Visibility: 6mi
Dew Point: 24°   Wind: 7mph
Humidity: 62%   Direction: 50°NE
Pressure: 29.74"   Gusts: NA
Location:  29.2°S, 58.08°W
Report Text: SARL 252200Z 05006KT 9999 SCT020 FEW045CB32/24 Q1007
Loading
Personal Weather Stations






























Interactive Weather Map New forecast layout! Learn more

10-Day Weather Forecast

Advertisements
Track Severe Weather on mobile